createdAt,value
2023-04-23T00:00:21.413Z,96704.94
2023-04-23T00:01:27.116Z,96707.41
2023-04-23T00:02:33.437Z,96702.94
2023-04-23T00:03:37.496Z,96701.25
2023-04-23T00:04:39.939Z,96711.06
2023-04-23T00:05:43.651Z,96707.59
2023-04-23T00:06:46.858Z,96712.97
2023-04-23T00:07:48.477Z,96711.84
2023-04-23T00:08:53.098Z,96708.84
2023-04-23T00:09:57.685Z,96711.97
2023-04-23T00:10:59.793Z,96709.66
2023-04-23T00:12:02.161Z,96714.53
2023-04-23T00:13:04.461Z,96706.81
2023-04-23T00:14:06.225Z,96703.34
2023-04-23T00:15:08.563Z,96707.19
2023-04-23T00:16:11.053Z,96706.81
2023-04-23T00:17:12.765Z,96707.81
2023-04-23T00:18:16.977Z,96716.84
2023-04-23T00:19:18.519Z,96707.31
2023-04-23T00:20:20.353Z,96711.91
2023-04-23T00:21:21.895Z,96709.22
2023-04-23T00:22:23.512Z,96714.00
2023-04-23T00:23:25.273Z,96713.09
2023-04-23T00:24:26.842Z,96712.81
2023-04-23T00:25:28.459Z,96715.84
2023-04-23T00:26:30.073Z,96715.19
2023-04-23T00:27:31.660Z,96720.53
2023-04-23T00:28:33.263Z,96721.97
2023-04-23T00:29:34.854Z,96718.44
2023-04-23T00:30:36.414Z,96717.38
2023-04-23T00:31:38.053Z,96716.97
2023-04-23T00:32:39.729Z,96715.13
2023-04-23T00:33:41.299Z,96717.06
2023-04-23T00:34:43.109Z,96717.41
2023-04-23T00:35:45.090Z,96715.44
2023-04-23T00:36:46.616Z,96716.81
2023-04-23T00:37:48.190Z,96713.13
2023-04-23T00:38:49.752Z,96721.16
2023-04-23T00:39:51.286Z,96725.84
2023-04-23T00:40:52.918Z,96722.28
2023-04-23T00:41:54.504Z,96725.66
2023-04-23T00:42:56.374Z,96723.41
2023-04-23T00:43:58.533Z,96720.81
2023-04-23T00:45:02.068Z,96723.19
2023-04-23T00:46:03.903Z,96723.97
2023-04-23T00:47:07.244Z,96726.44
2023-04-23T00:48:08.985Z,96728.88
2023-04-23T00:49:11.235Z,96724.31
2023-04-23T00:50:13.258Z,96731.22
2023-04-23T00:51:16.722Z,96725.66
2023-04-23T00:52:18.243Z,96722.28
2023-04-23T00:53:19.830Z,96723.41
2023-04-23T00:54:22.153Z,96729.09
2023-04-23T00:55:24.138Z,96723.50
2023-04-23T00:56:27.300Z,96720.94
2023-04-23T00:57:29.042Z,96730.75
2023-04-23T00:58:31.615Z,96726.09
2023-04-23T00:59:33.175Z,96723.84
2023-04-23T01:00:44.516Z,96726.28
2023-04-23T01:01:46.376Z,96726.28
2023-04-23T01:02:49.839Z,96723.84
2023-04-23T01:03:53.660Z,96720.72
2023-04-23T01:04:56.193Z,96725.84
2023-04-23T01:05:58.673Z,96723.63
2023-04-23T01:07:01.781Z,96730.56
2023-04-23T01:08:03.493Z,96726.78
2023-04-23T01:09:06.203Z,96726.97
2023-04-23T01:10:08.406Z,96730.31
2023-04-23T01:11:11.152Z,96720.38
2023-04-23T01:12:15.149Z,96726.66
2023-04-23T01:13:16.855Z,96725.53
2023-04-23T01:14:18.381Z,96728.09
2023-04-23T01:15:19.962Z,96729.31
2023-04-23T01:16:22.125Z,96731.47
2023-04-23T01:17:23.795Z,96740.06
2023-04-23T01:18:25.768Z,96733.22
2023-04-23T01:19:27.455Z,96735.16
2023-04-23T01:20:28.982Z,96735.91
2023-04-23T01:21:32.481Z,96733.91
2023-04-23T01:22:37.473Z,96732.81
2023-04-23T01:23:39.390Z,96731.69
2023-04-23T01:24:42.845Z,96729.78
2023-04-23T01:25:44.967Z,96732.25
2023-04-23T01:26:46.875Z,96725.41
2023-04-23T01:27:48.684Z,96726.31
2023-04-23T01:28:50.665Z,96729.66
2023-04-23T01:29:52.848Z,96727.00
2023-04-23T01:30:54.643Z,96725.97
2023-04-23T01:31:57.383Z,96724.50
2023-04-23T01:32:59.690Z,96729.00
2023-04-23T01:34:02.019Z,96729.44
2023-04-23T01:35:04.823Z,96727.56
2023-04-23T01:36:07.291Z,96723.84
2023-04-23T01:37:09.654Z,96725.41
2023-04-23T01:38:14.199Z,96724.31
2023-04-23T01:39:15.810Z,96723.19
2023-04-23T01:40:17.908Z,96727.97
2023-04-23T01:41:20.155Z,96719.16
2023-04-23T01:42:23.400Z,96731.19
2023-04-23T01:43:25.552Z,96724.06
2023-04-23T01:44:27.180Z,96727.84
2023-04-23T01:45:30.754Z,96728.28
2023-04-23T01:46:32.499Z,96724.63
2023-04-23T01:47:35.443Z,96729.72
2023-04-23T01:48:37.664Z,96736.44
2023-04-23T01:49:39.215Z,96733.69
2023-04-23T01:50:41.580Z,96733.44
2023-04-23T01:51:43.325Z,96733.84
2023-04-23T01:52:45.837Z,96734.81
2023-04-23T01:53:47.425Z,96731.13
2023-04-23T01:54:48.969Z,96732.41
2023-04-23T01:55:52.327Z,96732.16
2023-04-23T01:56:55.822Z,96728.63
2023-04-23T01:57:57.469Z,96737.69
2023-04-23T01:58:59.008Z,96732.25
2023-04-23T02:00:11.210Z,96736.97
2023-04-23T02:01:13.098Z,96743.09
2023-04-23T02:02:15.283Z,96746.31
2023-04-23T02:03:17.315Z,96735.44
2023-04-23T02:04:19.516Z,96739.88
2023-04-23T02:05:21.704Z,96737.38
2023-04-23T02:06:23.261Z,96730.78
2023-04-23T02:07:24.810Z,96737.88
2023-04-23T02:08:27.922Z,96737.16
2023-04-23T02:09:29.743Z,96736.06
2023-04-23T02:10:31.852Z,96737.03
2023-04-23T02:11:33.481Z,96740.19
2023-04-23T02:12:36.851Z,96728.59
2023-04-23T02:13:38.444Z,96734.59
2023-04-23T02:14:40.214Z,96733.94
2023-04-23T02:15:43.281Z,96734.72
2023-04-23T02:16:45.540Z,96734.41
2023-04-23T02:17:47.265Z,96734.28
2023-04-23T02:18:48.863Z,96745.13
2023-04-23T02:19:50.475Z,96739.31
2023-04-23T02:20:52.174Z,96731.19
2023-04-23T02:21:54.014Z,96737.44
2023-04-23T02:22:56.265Z,96738.19
2023-04-23T02:23:57.809Z,96728.31
2023-04-23T02:24:59.940Z,96725.28
2023-04-23T02:26:01.530Z,96739.84
2023-04-23T02:27:03.544Z,96726.59
2023-04-23T02:28:08.476Z,96737.38
2023-04-23T02:29:10.554Z,96733.88
2023-04-23T02:30:12.413Z,96732.09
2023-04-23T02:31:14.210Z,96737.09
2023-04-23T02:32:16.138Z,96735.16
2023-04-23T02:33:18.348Z,96742.59
2023-04-23T02:34:19.881Z,96735.28
2023-04-23T02:35:21.540Z,96736.31
2023-04-23T02:36:23.155Z,96731.56
2023-04-23T02:37:24.724Z,96728.69
2023-04-23T02:38:26.267Z,96726.75
2023-04-23T02:39:27.864Z,96732.78
2023-04-23T02:40:29.442Z,96734.59
2023-04-23T02:41:31.076Z,96734.84
2023-04-23T02:42:32.629Z,96729.28
2023-04-23T02:43:34.556Z,96736.91
2023-04-23T02:44:36.080Z,96727.09
2023-04-23T02:45:38.041Z,96736.03
2023-04-23T02:46:39.575Z,96729.09
2023-04-23T02:47:41.319Z,96737.34
2023-04-23T02:48:42.915Z,96733.13
2023-04-23T02:49:44.474Z,96730.66
2023-04-23T02:50:46.828Z,96731.97
2023-04-23T02:51:48.490Z,96738.63
2023-04-23T02:52:50.067Z,96733.97
2023-04-23T02:53:51.589Z,96739.31
2023-04-23T02:54:53.613Z,96745.09
2023-04-23T02:55:55.324Z,96741.53
2023-04-23T02:56:57.506Z,96741.53
2023-04-23T02:57:59.910Z,96743.09
2023-04-23T02:59:01.884Z,96735.50
2023-04-23T03:00:06.995Z,96741.00
2023-04-23T03:01:08.898Z,96737.19
2023-04-23T03:02:11.039Z,96741.78
2023-04-23T03:03:12.980Z,96738.84
2023-04-23T03:04:14.775Z,96743.50
2023-04-23T03:05:16.566Z,96745.31
2023-04-23T03:06:18.089Z,96742.06
2023-04-23T03:07:19.610Z,96753.16
2023-04-23T03:08:21.501Z,96747.69
2023-04-23T03:09:23.063Z,96754.63
2023-04-23T03:10:24.609Z,96742.03
2023-04-23T03:11:26.260Z,96753.84
2023-04-23T03:12:27.753Z,96743.13
2023-04-23T03:13:29.454Z,96750.84
2023-04-23T03:14:31.276Z,96754.75
2023-04-23T03:15:32.860Z,96754.06
2023-04-23T03:16:34.535Z,96745.84
2023-04-23T03:17:36.117Z,96749.91
2023-04-23T03:18:37.722Z,96747.81
2023-04-23T03:19:39.290Z,96749.50
2023-04-23T03:20:41.103Z,96749.75
2023-04-23T03:21:42.646Z,96745.31
2023-04-23T03:22:44.328Z,96747.78
2023-04-23T03:23:45.872Z,96746.78
2023-04-23T03:24:47.424Z,96755.59
2023-04-23T03:25:49.005Z,96752.69
2023-04-23T03:26:50.583Z,96751.56
2023-04-23T03:27:53.222Z,96751.56
2023-04-23T03:28:54.749Z,96750.94
2023-04-23T03:29:56.301Z,96748.88
2023-04-23T03:30:57.894Z,96755.38
2023-04-23T03:31:59.492Z,96754.72
2023-04-23T03:33:02.475Z,96752.16
2023-04-23T03:34:04.128Z,96748.81
2023-04-23T03:35:06.142Z,96741.38
2023-04-23T03:36:07.977Z,96752.31
2023-04-23T03:37:09.914Z,96760.34
2023-04-23T03:38:11.576Z,96756.50
2023-04-23T03:39:13.142Z,96759.34
2023-04-23T03:40:15.238Z,96757.09
2023-04-23T03:41:16.763Z,96755.78
2023-04-23T03:42:18.457Z,96761.06
2023-04-23T03:43:20.134Z,96760.84
2023-04-23T03:44:21.727Z,96757.97
2023-04-23T03:45:23.379Z,96763.78
2023-04-23T03:46:24.909Z,96762.00
2023-04-23T03:47:27.048Z,96761.38
2023-04-23T03:48:29.157Z,96765.72
2023-04-23T03:49:30.753Z,96762.25
2023-04-23T03:50:34.522Z,96769.97
2023-04-23T03:51:36.131Z,96768.41
2023-04-23T03:52:37.682Z,96774.09
2023-04-23T03:53:39.231Z,96772.97
2023-04-23T03:54:41.258Z,96780.34
2023-04-23T03:55:43.547Z,96780.56
2023-04-23T03:56:45.814Z,96783.97
2023-04-23T03:57:47.344Z,96778.34
2023-04-23T03:58:48.860Z,96779.81
2023-04-23T03:59:50.814Z,96781.38
2023-04-23T04:00:52.401Z,96778.63
2023-04-23T04:01:54.150Z,96785.03
2023-04-23T04:02:55.906Z,96786.22
2023-04-23T04:03:57.670Z,96791.97
2023-04-23T04:04:59.667Z,96784.59
2023-04-23T04:06:01.674Z,96789.47
2023-04-23T04:07:03.305Z,96788.25
2023-04-23T04:08:05.217Z,96783.53
2023-04-23T04:09:10.069Z,96791.88
2023-04-23T04:10:11.729Z,96793.13
2023-04-23T04:11:13.341Z,96787.72
2023-04-23T04:12:16.228Z,96797.13
2023-04-23T04:13:17.781Z,96793.81
2023-04-23T04:14:19.369Z,96799.44
2023-04-23T04:15:21.125Z,96799.59
2023-04-23T04:16:22.735Z,96798.69
2023-04-23T04:17:24.334Z,96801.38
2023-04-23T04:18:25.870Z,96798.19
2023-04-23T04:19:27.414Z,96805.50
2023-04-23T04:20:29.036Z,96802.63
2023-04-23T04:21:30.547Z,96804.22
2023-04-23T04:22:32.175Z,96802.00
2023-04-23T04:23:34.204Z,96804.16
2023-04-23T04:24:35.839Z,96803.81
2023-04-23T04:25:40.173Z,96811.41
2023-04-23T04:26:42.120Z,96803.31
2023-04-23T04:27:44.446Z,96802.94
2023-04-23T04:28:46.500Z,96802.66
2023-04-23T04:29:48.779Z,96806.19
2023-04-23T04:30:50.563Z,96802.78
2023-04-23T04:31:53.266Z,96808.38
2023-04-23T04:32:54.868Z,96809.47
2023-04-23T04:33:57.374Z,96806.28
2023-04-23T04:34:58.993Z,96803.31
2023-04-23T04:36:00.590Z,96812.06
2023-04-23T04:37:02.125Z,96806.06
2023-04-23T04:38:03.691Z,96815.03
2023-04-23T04:39:05.302Z,96816.03
2023-04-23T04:40:08.012Z,96811.63
2023-04-23T04:41:09.749Z,96815.22
2023-04-23T04:42:13.152Z,96819.28
2023-04-23T04:43:16.631Z,96818.38
2023-04-23T04:44:18.399Z,96814.16
2023-04-23T04:45:20.003Z,96823.22
2023-04-23T04:46:21.973Z,96821.22
2023-04-23T04:47:23.550Z,96817.31
2023-04-23T04:48:25.709Z,96822.69
2023-04-23T04:49:27.265Z,96822.66
2023-04-23T04:50:28.775Z,96824.88
2023-04-23T04:51:30.342Z,96821.75
2023-04-23T04:52:32.338Z,96824.00
2023-04-23T04:53:35.974Z,96819.06
2023-04-23T04:54:37.622Z,96823.88
2023-04-23T04:55:39.147Z,96828.88
2023-04-23T04:56:40.785Z,96831.34
2023-04-23T04:57:42.376Z,96831.34
2023-04-23T04:58:43.954Z,96830.09
2023-04-23T04:59:45.932Z,96829.84
2023-04-23T05:00:51.851Z,96827.47
2023-04-23T05:01:53.660Z,96829.03
2023-04-23T05:02:56.844Z,96829.91
2023-04-23T05:03:59.670Z,96831.41
2023-04-23T05:05:01.454Z,96826.81
2023-04-23T05:06:03.032Z,96834.97
2023-04-23T05:07:04.607Z,96826.56
2023-04-23T05:08:06.169Z,96832.38
2023-04-23T05:09:08.413Z,96831.69
2023-04-23T05:10:10.548Z,96832.25
2023-04-23T05:11:12.195Z,96831.88
2023-04-23T05:12:13.771Z,96836.69
2023-04-23T05:13:15.292Z,96838.69
2023-04-23T05:14:16.908Z,96835.00
2023-04-23T05:15:18.524Z,96839.47
2023-04-23T05:16:20.063Z,96842.72
2023-04-23T05:17:21.647Z,96832.59
2023-04-23T05:18:23.252Z,96830.91
2023-04-23T05:19:24.912Z,96839.16
2023-04-23T05:20:27.225Z,96837.66
2023-04-23T05:21:28.763Z,96831.31
2023-04-23T05:22:30.630Z,96834.00
2023-04-23T05:23:32.847Z,96832.56
2023-04-23T05:24:34.318Z,96836.09
2023-04-23T05:25:35.931Z,96831.38
2023-04-23T05:26:37.468Z,96837.94
2023-04-23T05:27:39.911Z,96829.28
2023-04-23T05:28:41.465Z,96830.34
2023-04-23T05:29:42.995Z,96833.56
2023-04-23T05:30:44.628Z,96835.94
2023-04-23T05:31:46.745Z,96833.38
2023-04-23T05:32:48.469Z,96834.28
2023-04-23T05:33:50.907Z,96839.22
2023-04-23T05:34:52.598Z,96833.84
2023-04-23T05:35:54.997Z,96833.84
2023-04-23T05:36:56.519Z,96842.28
2023-04-23T05:37:58.037Z,96840.16
2023-04-23T05:38:59.587Z,96834.88
2023-04-23T05:40:02.691Z,96840.94
2023-04-23T05:41:04.446Z,96842.16
2023-04-23T05:42:06.042Z,96831.16
2023-04-23T05:43:07.921Z,96842.00
2023-04-23T05:44:09.566Z,96837.41
2023-04-23T05:45:11.691Z,96839.22
2023-04-23T05:46:13.494Z,96840.72
2023-04-23T05:47:15.280Z,96839.94
2023-04-23T05:48:16.840Z,96844.41
2023-04-23T05:49:18.381Z,96841.53
2023-04-23T05:50:21.295Z,96844.69
2023-04-23T05:51:22.976Z,96844.97
2023-04-23T05:52:25.085Z,96846.25
2023-04-23T05:53:27.728Z,96844.84
2023-04-23T05:54:29.758Z,96846.56
2023-04-23T05:55:31.312Z,96842.59
2023-04-23T05:56:32.845Z,96843.56
2023-04-23T05:57:34.383Z,96840.28
2023-04-23T05:58:36.266Z,96840.03
2023-04-23T05:59:37.812Z,96837.56
2023-04-23T06:00:40.877Z,96837.69
2023-04-23T06:01:42.567Z,96830.09
2023-04-23T06:02:44.454Z,96837.16
2023-04-23T06:03:46.729Z,96831.16
2023-04-23T06:04:48.679Z,96827.78
2023-04-23T06:05:50.784Z,96831.75
2023-04-23T06:06:52.421Z,96829.81
2023-04-23T06:07:54.012Z,96831.28
2023-04-23T06:08:55.832Z,96832.88
2023-04-23T06:09:57.368Z,96822.28
2023-04-23T06:10:59.084Z,96833.38
2023-04-23T06:12:01.026Z,96822.31
2023-04-23T06:13:02.819Z,96825.25
2023-04-23T06:14:04.511Z,96826.03
2023-04-23T06:15:09.949Z,96821.50
2023-04-23T06:16:11.574Z,96822.94
2023-04-23T06:17:13.406Z,96823.16
2023-04-23T06:18:14.960Z,96820.38
2023-04-23T06:19:16.969Z,96826.44
2023-04-23T06:20:18.973Z,96828.31
2023-04-23T06:21:20.651Z,96822.34
2023-04-23T06:22:22.219Z,96818.38
2023-04-23T06:23:23.807Z,96817.47
2023-04-23T06:24:25.342Z,96819.34
2023-04-23T06:25:27.161Z,96819.47
2023-04-23T06:26:28.696Z,96816.25
2023-04-23T06:27:30.320Z,96812.25
2023-04-23T06:28:31.851Z,96823.31
2023-04-23T06:29:33.401Z,96821.09
2023-04-23T06:30:35.002Z,96821.41
2023-04-23T06:31:36.566Z,96820.34
2023-04-23T06:32:38.247Z,96825.22
2023-04-23T06:33:39.946Z,96821.44
2023-04-23T06:34:53.207Z,96826.25
2023-04-23T06:36:01.505Z,96825.25
2023-04-23T06:37:03.039Z,96817.31
2023-04-23T06:38:07.734Z,96822.91
2023-04-23T06:39:10.476Z,96816.22
2023-04-23T06:40:12.322Z,96822.69
2023-04-23T06:41:14.116Z,96818.13
2023-04-23T06:42:15.684Z,96816.47
2023-04-23T06:43:17.257Z,96812.69
2023-04-23T06:44:18.886Z,96817.66
2023-04-23T06:45:20.569Z,96818.97
2023-04-23T06:46:22.127Z,96816.84
2023-04-23T06:47:23.724Z,96811.50
2023-04-23T06:48:26.371Z,96809.13
2023-04-23T06:49:27.915Z,96812.63
2023-04-23T06:50:29.556Z,96811.84
2023-04-23T06:51:32.200Z,96812.97
2023-04-23T06:52:33.978Z,96810.31
2023-04-23T06:53:35.849Z,96810.03
2023-04-23T06:54:37.388Z,96809.69
2023-04-23T06:55:38.956Z,96809.13
2023-04-23T06:56:40.542Z,96804.38
2023-04-23T06:57:42.058Z,96802.28
2023-04-23T06:58:43.695Z,96809.47
2023-04-23T06:59:45.241Z,96812.91
2023-04-23T07:00:46.945Z,96805.00
2023-04-23T07:01:48.796Z,96811.22
2023-04-23T07:02:50.999Z,96806.59
2023-04-23T07:03:54.534Z,96810.16
2023-04-23T07:04:56.525Z,96807.44
2023-04-23T07:05:58.106Z,96807.03
2023-04-23T07:07:00.385Z,96811.06
2023-04-23T07:08:01.940Z,96805.47
2023-04-23T07:09:03.836Z,96802.16
2023-04-23T07:10:06.118Z,96799.19
2023-04-23T07:11:07.805Z,96803.53
2023-04-23T07:12:09.370Z,96805.09
2023-04-23T07:13:11.024Z,96802.03
2023-04-23T07:14:12.622Z,96801.91
2023-04-23T07:15:14.383Z,96798.38
2023-04-23T07:16:16.362Z,96803.25
2023-04-23T07:17:17.936Z,96800.84
2023-04-23T07:18:19.463Z,96802.31
2023-04-23T07:19:21.097Z,96804.69
2023-04-23T07:20:22.843Z,96801.00
2023-04-23T07:21:27.510Z,96798.00
2023-04-23T07:22:30.439Z,96800.19
2023-04-23T07:23:32.071Z,96796.91
2023-04-23T07:24:34.781Z,96795.41
2023-04-23T07:25:36.522Z,96796.09
2023-04-23T07:26:38.078Z,96791.03
2023-04-23T07:27:39.729Z,96793.78
2023-04-23T07:28:41.295Z,96785.41
2023-04-23T07:29:42.987Z,96791.75
2023-04-23T07:30:44.586Z,96794.19
2023-04-23T07:31:46.507Z,96794.19
2023-04-23T07:32:48.638Z,96786.94
2023-04-23T07:33:50.239Z,96792.81
2023-04-23T07:34:52.469Z,96799.41
2023-04-23T07:35:54.157Z,96798.97
2023-04-23T07:36:57.258Z,96791.94
2023-04-23T07:37:59.005Z,96792.22
2023-04-23T07:39:00.607Z,96781.56
2023-04-23T07:40:02.450Z,96790.66
2023-04-23T07:41:04.081Z,96789.91
2023-04-23T07:42:05.754Z,96788.41
2023-04-23T07:43:07.301Z,96782.88
2023-04-23T07:44:08.866Z,96784.47
2023-04-23T07:45:11.488Z,96778.28
2023-04-23T07:46:13.062Z,96781.72
2023-04-23T07:47:14.865Z,96772.66
2023-04-23T07:48:16.396Z,96777.22
2023-04-23T07:49:18.141Z,96773.56
2023-04-23T07:50:19.781Z,96775.09
2023-04-23T07:51:22.579Z,96774.84
2023-04-23T07:52:24.161Z,96773.09
2023-04-23T07:53:26.217Z,96777.78
2023-04-23T07:54:27.768Z,96765.53
2023-04-23T07:55:29.331Z,96774.72
2023-04-23T07:56:32.529Z,96772.66
2023-04-23T07:57:34.137Z,96769.28
2023-04-23T07:58:35.800Z,96773.16
2023-04-23T07:59:39.402Z,96767.00
2023-04-23T08:00:41.343Z,96767.56
2023-04-23T08:01:42.924Z,96770.31
2023-04-23T08:02:44.580Z,96768.81
2023-04-23T08:03:46.405Z,96764.56
2023-04-23T08:04:48.138Z,96757.88
2023-04-23T08:05:49.805Z,96760.13
2023-04-23T08:06:51.859Z,96763.09
2023-04-23T08:07:53.376Z,96756.22
2023-04-23T08:08:56.193Z,96759.00
2023-04-23T08:10:02.864Z,96759.06
2023-04-23T08:11:05.664Z,96754.72
2023-04-23T08:12:07.302Z,96750.75
2023-04-23T08:13:09.144Z,96760.06
2023-04-23T08:14:11.253Z,96757.00
2023-04-23T08:15:12.836Z,96752.84
2023-04-23T08:16:14.573Z,96751.31
2023-04-23T08:17:16.284Z,96750.22
2023-04-23T08:18:18.111Z,96751.78
2023-04-23T08:19:19.663Z,96751.00
2023-04-23T08:20:21.249Z,96741.28
2023-04-23T08:21:24.617Z,96748.69
2023-04-23T08:22:26.281Z,96748.22
2023-04-23T08:23:27.851Z,96750.13
2023-04-23T08:24:29.456Z,96747.81
2023-04-23T08:25:32.621Z,96751.78
2023-04-23T08:26:34.527Z,96742.88
2023-04-23T08:27:36.653Z,96739.34
2023-04-23T08:28:38.251Z,96735.47
2023-04-23T08:29:40.024Z,96735.84
2023-04-23T08:30:41.832Z,96727.66
2023-04-23T08:31:43.451Z,96732.34
2023-04-23T08:32:49.419Z,96732.78
2023-04-23T08:33:51.021Z,96737.41
2023-04-23T08:34:52.559Z,96730.06
2023-04-23T08:35:54.209Z,96738.59
2023-04-23T08:36:55.838Z,96735.84
2023-04-23T08:37:57.568Z,96735.47
2023-04-23T08:39:00.719Z,96726.94
2023-04-23T08:40:02.248Z,96732.75
2023-04-23T08:41:06.185Z,96728.44
2023-04-23T08:42:18.833Z,96720.66
2023-04-23T08:43:20.779Z,96717.13
2023-04-23T08:44:25.015Z,96723.31
2023-04-23T08:45:26.942Z,96721.28
2023-04-23T08:46:32.888Z,96717.34
2023-04-23T08:47:36.241Z,96723.94
2023-04-23T08:48:39.988Z,96721.22
2023-04-23T08:49:43.425Z,96718.03
2023-04-23T08:50:46.077Z,96712.56
2023-04-23T08:51:53.401Z,96715.38
2023-04-23T08:52:56.818Z,96711.41
2023-04-23T08:54:01.624Z,96713.81
2023-04-23T08:55:07.561Z,96708.09
2023-04-23T08:56:09.427Z,96713.63
2023-04-23T08:57:11.263Z,96707.50
2023-04-23T08:58:13.790Z,96709.06
2023-04-23T08:59:17.959Z,96705.97
2023-04-23T09:00:23.211Z,96699.00
2023-04-23T09:01:25.639Z,96699.38
2023-04-23T09:02:28.397Z,96709.88
2023-04-23T09:03:30.649Z,96697.06
2023-04-23T09:04:32.873Z,96698.59
2023-04-23T09:05:34.984Z,96700.88
2023-04-23T09:06:36.768Z,96698.13
2023-04-23T09:07:39.055Z,96689.56
2023-04-23T09:08:41.340Z,96692.63
2023-04-23T09:09:43.208Z,96687.09
2023-04-23T09:10:46.048Z,96694.06
2023-04-23T09:11:47.857Z,96684.09
2023-04-23T09:12:49.611Z,96683.00
2023-04-23T09:13:51.281Z,96679.50
2023-04-23T09:14:53.023Z,96675.59
2023-04-23T09:15:54.610Z,96682.97
2023-04-23T09:16:56.566Z,96681.72
2023-04-23T09:17:59.007Z,96684.47
2023-04-23T09:19:00.647Z,96687.94
2023-04-23T09:20:03.902Z,96677.78
2023-04-23T09:21:06.891Z,96673.06
2023-04-23T09:22:09.284Z,96679.22
2023-04-23T09:23:14.757Z,96673.28
2023-04-23T09:24:17.989Z,96672.72
2023-04-23T09:25:21.453Z,96670.31
2023-04-23T09:26:23.275Z,96669.88
2023-04-23T09:27:26.494Z,96668.75
2023-04-23T09:28:38.287Z,96663.84
2023-04-23T09:29:40.228Z,96670.47
2023-04-23T09:30:45.960Z,96663.53
2023-04-23T09:31:52.388Z,96661.66
2023-04-23T09:32:54.147Z,96660.53
2023-04-23T09:33:55.955Z,96653.50
2023-04-23T09:34:57.697Z,96658.09
2023-04-23T09:35:59.271Z,96646.50
2023-04-23T09:37:01.052Z,96658.13
2023-04-23T09:38:07.686Z,96649.63
2023-04-23T09:39:13.770Z,96641.78
2023-04-23T09:40:17.148Z,96646.00
2023-04-23T09:41:27.215Z,96644.75
2023-04-23T09:42:28.977Z,96646.25
2023-04-23T09:43:31.047Z,96640.66
2023-04-23T09:44:34.000Z,96635.03
2023-04-23T09:45:35.926Z,96637.19
2023-04-23T09:46:42.449Z,96631.63
2023-04-23T09:47:53.165Z,96633.97
2023-04-23T09:48:57.392Z,96632.50
2023-04-23T09:49:59.813Z,96632.06
2023-04-23T09:51:02.403Z,96635.19
2023-04-23T09:52:07.349Z,96631.19
2023-04-23T09:53:10.678Z,96618.72
2023-04-23T09:54:23.699Z,96626.13
2023-04-23T09:55:38.875Z,96617.94
2023-04-23T09:56:41.976Z,96624.94
2023-04-23T09:57:44.385Z,96625.63
2023-04-23T09:58:46.604Z,96621.63
2023-04-23T09:59:51.531Z,96624.75
2023-04-23T10:01:11.778Z,96623.53
2023-04-23T10:02:13.645Z,96622.34
2023-04-23T10:03:15.852Z,96622.28
2023-04-23T10:04:25.216Z,96614.63
2023-04-23T10:05:31.620Z,96608.41
2023-04-23T10:06:49.947Z,96608.50
2023-04-23T10:08:04.997Z,96612.22
2023-04-23T10:09:06.965Z,96612.88
2023-04-23T10:10:09.139Z,96612.44
2023-04-23T10:11:20.282Z,96605.06
2023-04-23T10:13:28.534Z,96600.41
2023-04-23T10:14:31.121Z,96603.06
2023-04-23T10:15:34.330Z,96593.34
2023-04-23T10:16:46.367Z,96595.16
2023-04-23T10:17:51.641Z,96598.63
2023-04-23T10:18:55.474Z,96596.78
2023-04-23T10:20:01.633Z,96588.31
2023-04-23T10:21:03.935Z,96586.44
2023-04-23T10:22:19.330Z,96589.66
2023-04-23T10:23:23.787Z,96584.50
2023-04-23T10:24:25.762Z,96581.44
2023-04-23T10:25:28.533Z,96587.97
2023-04-23T10:26:32.011Z,96586.69
2023-04-23T10:27:49.106Z,96580.06
2023-04-23T10:28:55.190Z,96588.88
2023-04-23T10:30:01.206Z,96586.50
2023-04-23T10:31:05.015Z,96580.28
2023-04-23T10:32:07.371Z,96580.59
2023-04-23T10:33:26.398Z,96578.59
2023-04-23T10:34:32.609Z,96573.00
2023-04-23T10:35:35.045Z,96572.09
2023-04-23T10:36:39.672Z,96570.94
2023-04-23T10:37:42.128Z,96570.53
2023-04-23T10:38:56.834Z,96563.53
2023-04-23T10:40:08.159Z,96566.97
2023-04-23T10:41:10.840Z,96557.97
2023-04-23T10:42:13.801Z,96565.34
2023-04-23T10:43:15.806Z,96556.69
2023-04-23T10:44:18.431Z,96556.22
2023-04-23T10:45:31.126Z,96562.41
2023-04-23T10:46:37.013Z,96554.88
2023-04-23T10:47:42.034Z,96557.69
2023-04-23T10:48:51.824Z,96556.88
2023-04-23T10:49:54.079Z,96559.94
2023-04-23T10:51:24.890Z,96553.78
2023-04-23T10:52:25.807Z,96548.66
2023-04-23T10:53:31.940Z,96551.25
2023-04-23T10:54:35.075Z,96551.19
2023-04-23T10:55:37.048Z,96539.00
2023-04-23T10:56:42.521Z,96549.03
2023-04-23T10:58:04.176Z,96546.88
2023-04-23T10:59:08.523Z,96540.81
2023-04-23T11:00:10.937Z,96541.06
2023-04-23T11:01:12.864Z,96536.25
2023-04-23T11:02:14.853Z,96537.97
2023-04-23T11:03:44.122Z,96540.19
2023-04-23T11:04:53.938Z,96534.56
2023-04-23T11:05:55.664Z,96536.72
2023-04-23T11:07:07.147Z,96534.69
2023-04-23T11:08:18.895Z,96533.13
2023-04-23T11:09:32.026Z,96532.53
2023-04-23T11:10:33.981Z,96524.66
2023-04-23T11:11:43.430Z,96531.63
2023-04-23T11:12:45.139Z,96533.88
2023-04-23T11:13:55.733Z,96528.28
2023-04-23T11:15:01.686Z,96525.88
2023-04-23T11:16:14.540Z,96521.84
2023-04-23T11:17:32.929Z,96528.72
2023-04-23T11:18:54.942Z,96530.88
2023-04-23T11:20:20.361Z,96530.06
2023-04-23T11:21:22.362Z,96530.13
2023-04-23T11:22:24.535Z,96527.50
2023-04-23T11:23:33.032Z,96528.59
2023-04-23T11:24:37.382Z,96530.69
2023-04-23T11:28:14.512Z,96532.28
2023-04-23T11:29:16.314Z,96525.28
2023-04-23T11:30:22.559Z,96519.56
2023-04-23T11:31:24.415Z,96525.75
2023-04-23T11:32:28.262Z,96523.00
2023-04-23T11:33:30.188Z,96519.94
2023-04-23T11:34:33.956Z,96526.19
2023-04-23T11:35:40.806Z,96530.88
2023-04-23T11:36:43.451Z,96527.69
2023-04-23T11:37:46.231Z,96526.88
2023-04-23T11:38:47.852Z,96523.75
2023-04-23T11:39:51.463Z,96524.53
2023-04-23T11:40:53.508Z,96526.78
2023-04-23T11:41:55.270Z,96522.00
2023-04-23T11:42:57.554Z,96523.00
2023-04-23T11:43:59.760Z,96523.41
2023-04-23T11:45:01.370Z,96512.47
2023-04-23T11:46:02.978Z,96509.28
2023-04-23T11:47:06.961Z,96513.09
2023-04-23T11:48:08.607Z,96514.13
2023-04-23T11:49:10.499Z,96504.75
2023-04-23T11:50:22.820Z,96501.03
2023-04-23T11:51:27.749Z,96509.44
2023-04-23T11:52:29.407Z,96505.41
2023-04-23T11:53:30.958Z,96499.06
2023-04-23T11:54:33.559Z,96504.91
2023-04-23T11:55:35.142Z,96505.00
2023-04-23T11:56:37.966Z,96506.16
2023-04-23T11:57:58.530Z,96498.69
2023-04-23T11:59:03.824Z,96499.53
2023-04-23T12:00:16.354Z,96493.69
2023-04-23T12:01:17.897Z,96496.81
2023-04-23T12:02:19.680Z,96496.44
2023-04-23T12:03:27.299Z,96491.34
2023-04-23T12:04:30.999Z,96492.53
2023-04-23T12:05:39.617Z,96486.59
2023-04-23T12:06:43.821Z,96491.25
2023-04-23T12:07:49.194Z,96486.50
2023-04-23T12:08:50.706Z,96489.56
2023-04-23T12:09:52.233Z,96484.88
2023-04-23T12:10:59.209Z,96484.81
2023-04-23T12:12:00.910Z,96481.22
2023-04-23T12:13:03.640Z,96471.66
2023-04-23T12:14:05.480Z,96479.94
2023-04-23T12:15:08.626Z,96482.59
2023-04-23T12:16:11.167Z,96484.56
2023-04-23T12:17:13.363Z,96476.50
2023-04-23T12:18:15.679Z,96480.50
2023-04-23T12:19:22.259Z,96478.53
2023-04-23T12:20:23.859Z,96477.03
2023-04-23T12:21:26.415Z,96470.81
2023-04-23T12:22:28.371Z,96469.56
2023-04-23T12:23:30.081Z,96478.06